Alloa, United Kingdom
Current Conditions -  °F | °C
As of 2:20 PM on Thursday 29 Jan 2015 (Local Time) from EGPH Reporting Station
Scattered Clouds Scattered Clouds  
Wind Chill: 27°   Ceiling: Unl
Heat Index: 36°   Visibility: 6mi
Dew Point: 32°   Wind: 13mph
Humidity: 87%   Direction: 270°W
Pressure: 28.7"   Gusts: NA
Location:  56.12°N, 3.79°W
Report Text: EGPH 291420Z 27011KT 240V310 9999 FEW017 SCT026 02/M00 Q0972
Loading
Personal Weather Stations






























Interactive Weather Map New forecast layout! Learn more

10-Day Weather Forecast

Advertisements
Track Severe Weather on mobile